sensor_id;sensor_type;location;lat;lon;timestamp;P1;durP1;ratioP1;P2;durP2;ratioP2
24145;SDS011;12308;50.948;4.706;2023-04-03T00:02:06;40.17;;;19.02;;
24145;SDS011;12308;50.948;4.706;2023-04-03T00:04:32;32.03;;;18.52;;
24145;SDS011;12308;50.948;4.706;2023-04-03T00:06:58;34.35;;;18.30;;
24145;SDS011;12308;50.948;4.706;2023-04-03T00:09:24;38.47;;;20.77;;
24145;SDS011;12308;50.948;4.706;2023-04-03T00:11:50;37.50;;;19.70;;
24145;SDS011;12308;50.948;4.706;2023-04-03T00:14:16;40.88;;;20.50;;
24145;SDS011;12308;50.948;4.706;2023-04-03T00:16:41;39.70;;;20.90;;
24145;SDS011;12308;50.948;4.706;2023-04-03T00:19:07;36.15;;;19.73;;
24145;SDS011;12308;50.948;4.706;2023-04-03T00:21:33;35.63;;;18.85;;
24145;SDS011;12308;50.948;4.706;2023-04-03T00:23:58;37.08;;;19.35;;
24145;SDS011;12308;50.948;4.706;2023-04-03T00:26:24;32.65;;;17.17;;
24145;SDS011;12308;50.948;4.706;2023-04-03T00:28:50;32.65;;;16.98;;
24145;SDS011;12308;50.948;4.706;2023-04-03T00:31:16;35.58;;;17.48;;
24145;SDS011;12308;50.948;4.706;2023-04-03T00:33:42;28.65;;;15.48;;
24145;SDS011;12308;50.948;4.706;2023-04-03T00:36:08;28.48;;;14.80;;
24145;SDS011;12308;50.948;4.706;2023-04-03T00:38:35;25.48;;;15.10;;
24145;SDS011;12308;50.948;4.706;2023-04-03T00:41:01;35.95;;;15.35;;
24145;SDS011;12308;50.948;4.706;2023-04-03T00:43:26;26.63;;;14.35;;
24145;SDS011;12308;50.948;4.706;2023-04-03T00:45:57;22.98;;;13.93;;
24145;SDS011;12308;50.948;4.706;2023-04-03T00:51:05;25.05;;;14.30;;
24145;SDS011;12308;50.948;4.706;2023-04-03T00:53:35;23.33;;;13.68;;
24145;SDS011;12308;50.948;4.706;2023-04-03T00:56:06;22.88;;;13.73;;
24145;SDS011;12308;50.948;4.706;2023-04-03T00:58:43;22.95;;;13.38;;
24145;SDS011;12308;50.948;4.706;2023-04-03T01:01:16;22.33;;;13.10;;
24145;SDS011;12308;50.948;4.706;2023-04-03T01:03:45;27.80;;;12.68;;
24145;SDS011;12308;50.948;4.706;2023-04-03T01:06:11;22.38;;;13.35;;
24145;SDS011;12308;50.948;4.706;2023-04-03T01:08:39;22.83;;;12.88;;
24145;SDS011;12308;50.948;4.706;2023-04-03T01:11:05;25.65;;;13.73;;
24145;SDS011;12308;50.948;4.706;2023-04-03T01:13:31;21.17;;;13.80;;
24145;SDS011;12308;50.948;4.706;2023-04-03T01:16:00;26.17;;;14.20;;
24145;SDS011;12308;50.948;4.706;2023-04-03T01:18:28;22.15;;;13.52;;
24145;SDS011;12308;50.948;4.706;2023-04-03T01:25:58;23.20;;;14.38;;
24145;SDS011;12308;50.948;4.706;2023-04-03T01:28:28;27.27;;;14.55;;
24145;SDS011;12308;50.948;4.706;2023-04-03T01:31:02;26.17;;;13.50;;
24145;SDS011;12308;50.948;4.706;2023-04-03T01:33:40;24.63;;;13.50;;
24145;SDS011;12308;50.948;4.706;2023-04-03T01:36:07;20.77;;;12.52;;
24145;SDS011;12308;50.948;4.706;2023-04-03T01:38:33;26.10;;;13.70;;
24145;SDS011;12308;50.948;4.706;2023-04-03T01:40:59;26.05;;;14.15;;
24145;SDS011;12308;50.948;4.706;2023-04-03T01:43:25;29.35;;;13.07;;
24145;SDS011;12308;50.948;4.706;2023-04-03T01:45:50;22.42;;;13.05;;
24145;SDS011;12308;50.948;4.706;2023-04-03T01:48:18;26.17;;;12.73;;
24145;SDS011;12308;50.948;4.706;2023-04-03T01:50:43;28.88;;;13.35;;
24145;SDS011;12308;50.948;4.706;2023-04-03T01:53:09;20.45;;;12.75;;
24145;SDS011;12308;50.948;4.706;2023-04-03T01:55:34;20.45;;;12.02;;
24145;SDS011;12308;50.948;4.706;2023-04-03T01:58:00;19.05;;;12.23;;
24145;SDS011;12308;50.948;4.706;2023-04-03T02:00:26;24.13;;;12.32;;
24145;SDS011;12308;50.948;4.706;2023-04-03T02:02:51;21.17;;;12.35;;
24145;SDS011;12308;50.948;4.706;2023-04-03T02:05:17;22.67;;;11.57;;
24145;SDS011;12308;50.948;4.706;2023-04-03T02:07:43;20.33;;;12.00;;
24145;SDS011;12308;50.948;4.706;2023-04-03T02:10:09;23.15;;;13.10;;
24145;SDS011;12308;50.948;4.706;2023-04-03T02:12:35;22.17;;;12.38;;
24145;SDS011;12308;50.948;4.706;2023-04-03T02:15:01;24.58;;;13.65;;
24145;SDS011;12308;50.948;4.706;2023-04-03T02:17:26;23.25;;;13.07;;
24145;SDS011;12308;50.948;4.706;2023-04-03T02:19:52;19.30;;;12.73;;
24145;SDS011;12308;50.948;4.706;2023-04-03T02:22:18;19.85;;;12.65;;
24145;SDS011;12308;50.948;4.706;2023-04-03T02:24:44;21.48;;;12.82;;
24145;SDS011;12308;50.948;4.706;2023-04-03T02:27:09;19.63;;;12.00;;
24145;SDS011;12308;50.948;4.706;2023-04-03T02:29:35;20.98;;;12.50;;
24145;SDS011;12308;50.948;4.706;2023-04-03T02:32:01;21.65;;;12.63;;
24145;SDS011;12308;50.948;4.706;2023-04-03T02:34:26;18.10;;;12.70;;
24145;SDS011;12308;50.948;4.706;2023-04-03T02:36:52;19.45;;;13.07;;
24145;SDS011;12308;50.948;4.706;2023-04-03T02:39:18;20.50;;;12.93;;
24145;SDS011;12308;50.948;4.706;2023-04-03T02:41:43;20.10;;;12.85;;
24145;SDS011;12308;50.948;4.706;2023-04-03T02:44:10;23.25;;;13.10;;
24145;SDS011;12308;50.948;4.706;2023-04-03T02:46:36;23.40;;;14.32;;
24145;SDS011;12308;50.948;4.706;2023-04-03T02:49:02;24.13;;;12.98;;
24145;SDS011;12308;50.948;4.706;2023-04-03T02:51:27;24.60;;;13.52;;
24145;SDS011;12308;50.948;4.706;2023-04-03T02:53:53;26.23;;;13.93;;
24145;SDS011;12308;50.948;4.706;2023-04-03T02:56:19;21.63;;;13.20;;
24145;SDS011;12308;50.948;4.706;2023-04-03T02:58:45;24.60;;;14.07;;
24145;SDS011;12308;50.948;4.706;2023-04-03T03:01:11;21.73;;;12.70;;
24145;SDS011;12308;50.948;4.706;2023-04-03T03:03:37;21.75;;;13.40;;
24145;SDS011;12308;50.948;4.706;2023-04-03T03:06:13;25.35;;;13.32;;
24145;SDS011;12308;50.948;4.706;2023-04-03T03:08:41;22.42;;;13.10;;
24145;SDS011;12308;50.948;4.706;2023-04-03T03:11:07;25.27;;;14.27;;
24145;SDS011;12308;50.948;4.706;2023-04-03T03:13:33;22.20;;;13.82;;
24145;SDS011;12308;50.948;4.706;2023-04-03T03:15:59;21.92;;;14.40;;
24145;SDS011;12308;50.948;4.706;2023-04-03T03:18:25;25.73;;;14.27;;
24145;SDS011;12308;50.948;4.706;2023-04-03T03:20:58;21.27;;;13.45;;
24145;SDS011;12308;50.948;4.706;2023-04-03T03:23:25;21.08;;;13.57;;
24145;SDS011;12308;50.948;4.706;2023-04-03T03:25:56;24.83;;;13.40;;
24145;SDS011;12308;50.948;4.706;2023-04-03T03:28:22;23.02;;;14.20;;
24145;SDS011;12308;50.948;4.706;2023-04-03T03:30:48;23.98;;;14.07;;
24145;SDS011;12308;50.948;4.706;2023-04-03T03:33:14;23.17;;;13.50;;
24145;SDS011;12308;50.948;4.706;2023-04-03T03:35:40;24.95;;;14.40;;
24145;SDS011;12308;50.948;4.706;2023-04-03T03:38:05;22.00;;;14.77;;
24145;SDS011;12308;50.948;4.706;2023-04-03T03:40:31;23.05;;;13.65;;
24145;SDS011;12308;50.948;4.706;2023-04-03T03:42:57;25.23;;;14.75;;
24145;SDS011;12308;50.948;4.706;2023-04-03T03:45:22;23.73;;;15.20;;
24145;SDS011;12308;50.948;4.706;2023-04-03T03:47:48;22.08;;;14.27;;
24145;SDS011;12308;50.948;4.706;2023-04-03T03:50:14;22.83;;;14.35;;
24145;SDS011;12308;50.948;4.706;2023-04-03T03:52:40;25.98;;;14.07;;
24145;SDS011;12308;50.948;4.706;2023-04-03T03:55:05;25.25;;;14.65;;
24145;SDS011;12308;50.948;4.706;2023-04-03T03:57:32;25.50;;;15.07;;
24145;SDS011;12308;50.948;4.706;2023-04-03T03:59:58;26.00;;;15.52;;
24145;SDS011;12308;50.948;4.706;2023-04-03T04:02:23;27.33;;;16.52;;
24145;SDS011;12308;50.948;4.706;2023-04-03T04:04:49;28.83;;;15.30;;
24145;SDS011;12308;50.948;4.706;2023-04-03T04:07:14;25.00;;;16.50;;
24145;SDS011;12308;50.948;4.706;2023-04-03T04:09:40;29.25;;;16.65;;
24145;SDS011;12308;50.948;4.706;2023-04-03T04:12:06;31.30;;;16.33;;
24145;SDS011;12308;50.948;4.706;2023-04-03T04:14:31;29.23;;;16.45;;
24145;SDS011;12308;50.948;4.706;2023-04-03T04:16:57;37.08;;;17.50;;
24145;SDS011;12308;50.948;4.706;2023-04-03T04:19:23;29.60;;;17.52;;
24145;SDS011;12308;50.948;4.706;2023-04-03T04:21:48;27.70;;;15.73;;
24145;SDS011;12308;50.948;4.706;2023-04-03T04:24:15;26.73;;;15.00;;
24145;SDS011;12308;50.948;4.706;2023-04-03T04:26:40;20.55;;;14.07;;
24145;SDS011;12308;50.948;4.706;2023-04-03T04:29:08;22.98;;;14.52;;
24145;SDS011;12308;50.948;4.706;2023-04-03T04:31:34;21.77;;;14.18;;
24145;SDS011;12308;50.948;4.706;2023-04-03T04:34:00;22.70;;;14.45;;
24145;SDS011;12308;50.948;4.706;2023-04-03T04:36:25;27.75;;;14.85;;
24145;SDS011;12308;50.948;4.706;2023-04-03T04:38:51;25.80;;;16.42;;
24145;SDS011;12308;50.948;4.706;2023-04-03T04:41:19;26.95;;;16.65;;
24145;SDS011;12308;50.948;4.706;2023-04-03T04:43:47;28.15;;;16.45;;
24145;SDS011;12308;50.948;4.706;2023-04-03T04:46:13;27.30;;;16.60;;
24145;SDS011;12308;50.948;4.706;2023-04-03T04:48:39;30.20;;;17.02;;
24145;SDS011;12308;50.948;4.706;2023-04-03T04:51:05;30.50;;;17.20;;
24145;SDS011;12308;50.948;4.706;2023-04-03T04:53:31;35.10;;;17.38;;
24145;SDS011;12308;50.948;4.706;2023-04-03T04:55:57;29.48;;;17.40;;
24145;SDS011;12308;50.948;4.706;2023-04-03T04:58:22;32.50;;;17.05;;
24145;SDS011;12308;50.948;4.706;2023-04-03T05:00:48;31.25;;;16.80;;
24145;SDS011;12308;50.948;4.706;2023-04-03T05:03:14;27.75;;;15.70;;
24145;SDS011;12308;50.948;4.706;2023-04-03T05:05:40;25.15;;;15.13;;
24145;SDS011;12308;50.948;4.706;2023-04-03T05:08:06;29.35;;;15.40;;
24145;SDS011;12308;50.948;4.706;2023-04-03T05:10:33;26.90;;;16.00;;
24145;SDS011;12308;50.948;4.706;2023-04-03T05:12:58;26.90;;;15.95;;
24145;SDS011;12308;50.948;4.706;2023-04-03T05:15:24;27.67;;;16.17;;
24145;SDS011;12308;50.948;4.706;2023-04-03T05:17:50;26.73;;;16.33;;
24145;SDS011;12308;50.948;4.706;2023-04-03T05:20:16;26.35;;;17.13;;
24145;SDS011;12308;50.948;4.706;2023-04-03T05:22:42;34.15;;;17.10;;
24145;SDS011;12308;50.948;4.706;2023-04-03T05:25:07;31.50;;;17.25;;
24145;SDS011;12308;50.948;4.706;2023-04-03T05:27:34;29.80;;;16.80;;
24145;SDS011;12308;50.948;4.706;2023-04-03T05:30:00;26.70;;;16.42;;
24145;SDS011;12308;50.948;4.706;2023-04-03T05:32:25;28.95;;;16.38;;
24145;SDS011;12308;50.948;4.706;2023-04-03T05:34:52;31.38;;;16.88;;
24145;SDS011;12308;50.948;4.706;2023-04-03T05:37:18;26.20;;;16.08;;
24145;SDS011;12308;50.948;4.706;2023-04-03T05:39:44;31.48;;;16.20;;
24145;SDS011;12308;50.948;4.706;2023-04-03T05:42:10;26.67;;;15.80;;
24145;SDS011;12308;50.948;4.706;2023-04-03T05:44:37;25.98;;;15.77;;
24145;SDS011;12308;50.948;4.706;2023-04-03T05:47:03;28.85;;;16.40;;
24145;SDS011;12308;50.948;4.706;2023-04-03T05:49:29;30.52;;;17.30;;
24145;SDS011;12308;50.948;4.706;2023-04-03T05:51:55;32.33;;;18.13;;
24145;SDS011;12308;50.948;4.706;2023-04-03T05:54:24;32.63;;;17.92;;
24145;SDS011;12308;50.948;4.706;2023-04-03T05:56:51;31.15;;;18.25;;
24145;SDS011;12308;50.948;4.706;2023-04-03T05:59:17;36.45;;;18.88;;
24145;SDS011;12308;50.948;4.706;2023-04-03T06:01:44;32.97;;;18.80;;
24145;SDS011;12308;50.948;4.706;2023-04-03T06:04:11;29.48;;;17.80;;
24145;SDS011;12308;50.948;4.706;2023-04-03T06:06:51;33.60;;;17.58;;
24145;SDS011;12308;50.948;4.706;2023-04-03T06:09:23;35.45;;;19.75;;
24145;SDS011;12308;50.948;4.706;2023-04-03T06:11:51;36.08;;;19.98;;
24145;SDS011;12308;50.948;4.706;2023-04-03T06:14:17;39.13;;;21.13;;
24145;SDS011;12308;50.948;4.706;2023-04-03T06:16:43;43.22;;;22.90;;
24145;SDS011;12308;50.948;4.706;2023-04-03T06:19:09;44.28;;;22.45;;
24145;SDS011;12308;50.948;4.706;2023-04-03T06:21:36;51.70;;;23.55;;
24145;SDS011;12308;50.948;4.706;2023-04-03T06:24:03;41.83;;;23.58;;
24145;SDS011;12308;50.948;4.706;2023-04-03T06:26:29;39.70;;;22.77;;
24145;SDS011;12308;50.948;4.706;2023-04-03T06:28:55;45.00;;;24.55;;
24145;SDS011;12308;50.948;4.706;2023-04-03T06:31:21;44.35;;;25.23;;
24145;SDS011;12308;50.948;4.706;2023-04-03T06:33:47;45.10;;;24.48;;
24145;SDS011;12308;50.948;4.706;2023-04-03T06:36:13;52.15;;;26.15;;
24145;SDS011;12308;50.948;4.706;2023-04-03T06:38:39;49.00;;;26.70;;
24145;SDS011;12308;50.948;4.706;2023-04-03T06:41:04;52.13;;;26.48;;
24145;SDS011;12308;50.948;4.706;2023-04-03T06:43:30;45.47;;;26.10;;
24145;SDS011;12308;50.948;4.706;2023-04-03T06:45:56;49.67;;;27.27;;
24145;SDS011;12308;50.948;4.706;2023-04-03T06:48:22;46.35;;;27.92;;
24145;SDS011;12308;50.948;4.706;2023-04-03T06:50:48;45.40;;;25.42;;
24145;SDS011;12308;50.948;4.706;2023-04-03T06:53:14;47.35;;;25.38;;
24145;SDS011;12308;50.948;4.706;2023-04-03T06:55:39;44.10;;;25.27;;
24145;SDS011;12308;50.948;4.706;2023-04-03T06:58:06;39.97;;;24.55;;
24145;SDS011;12308;50.948;4.706;2023-04-03T07:00:32;41.85;;;24.50;;
24145;SDS011;12308;50.948;4.706;2023-04-03T07:02:58;40.45;;;25.33;;
24145;SDS011;12308;50.948;4.706;2023-04-03T07:05:24;46.90;;;25.58;;
24145;SDS011;12308;50.948;4.706;2023-04-03T07:07:51;44.33;;;23.42;;
24145;SDS011;12308;50.948;4.706;2023-04-03T07:10:17;37.40;;;23.42;;
24145;SDS011;12308;50.948;4.706;2023-04-03T07:12:43;37.85;;;22.30;;
24145;SDS011;12308;50.948;4.706;2023-04-03T07:15:09;36.50;;;21.75;;
24145;SDS011;12308;50.948;4.706;2023-04-03T07:17:35;36.65;;;21.00;;
24145;SDS011;12308;50.948;4.706;2023-04-03T07:20:02;31.80;;;20.33;;
24145;SDS011;12308;50.948;4.706;2023-04-03T07:22:28;35.30;;;21.20;;
24145;SDS011;12308;50.948;4.706;2023-04-03T07:24:54;33.63;;;19.88;;
24145;SDS011;12308;50.948;4.706;2023-04-03T07:27:20;42.33;;;19.88;;
24145;SDS011;12308;50.948;4.706;2023-04-03T07:29:46;27.20;;;18.55;;
24145;SDS011;12308;50.948;4.706;2023-04-03T07:32:13;30.70;;;19.15;;
24145;SDS011;12308;50.948;4.706;2023-04-03T07:34:40;31.00;;;17.40;;
24145;SDS011;12308;50.948;4.706;2023-04-03T07:37:06;28.83;;;16.83;;
24145;SDS011;12308;50.948;4.706;2023-04-03T07:39:32;28.13;;;16.20;;
24145;SDS011;12308;50.948;4.706;2023-04-03T07:41:58;27.70;;;15.95;;
24145;SDS011;12308;50.948;4.706;2023-04-03T07:44:24;26.80;;;16.17;;
24145;SDS011;12308;50.948;4.706;2023-04-03T07:46:50;30.65;;;15.15;;
24145;SDS011;12308;50.948;4.706;2023-04-03T07:49:16;28.45;;;15.00;;
24145;SDS011;12308;50.948;4.706;2023-04-03T07:51:43;23.45;;;14.07;;
24145;SDS011;12308;50.948;4.706;2023-04-03T07:54:09;21.90;;;12.43;;
24145;SDS011;12308;50.948;4.706;2023-04-03T07:56:35;21.73;;;12.43;;
24145;SDS011;12308;50.948;4.706;2023-04-03T07:59:01;19.25;;;12.38;;
24145;SDS011;12308;50.948;4.706;2023-04-03T08:01:27;20.25;;;12.63;;
24145;SDS011;12308;50.948;4.706;2023-04-03T08:03:53;28.95;;;11.88;;
24145;SDS011;12308;50.948;4.706;2023-04-03T08:06:19;21.58;;;11.07;;
24145;SDS011;12308;50.948;4.706;2023-04-03T08:08:45;19.73;;;10.95;;
24145;SDS011;12308;50.948;4.706;2023-04-03T08:11:11;19.30;;;10.80;;
24145;SDS011;12308;50.948;4.706;2023-04-03T08:13:37;24.42;;;10.60;;
24145;SDS011;12308;50.948;4.706;2023-04-03T08:16:07;19.42;;;9.85;;
24145;SDS011;12308;50.948;4.706;2023-04-03T08:18:34;17.92;;;9.95;;
24145;SDS011;12308;50.948;4.706;2023-04-03T08:21:00;19.13;;;9.80;;
24145;SDS011;12308;50.948;4.706;2023-04-03T08:23:26;22.02;;;10.65;;
24145;SDS011;12308;50.948;4.706;2023-04-03T08:25:51;20.75;;;9.10;;
24145;SDS011;12308;50.948;4.706;2023-04-03T08:28:17;17.65;;;8.90;;
24145;SDS011;12308;50.948;4.706;2023-04-03T08:30:43;17.45;;;8.55;;
24145;SDS011;12308;50.948;4.706;2023-04-03T08:33:08;12.15;;;6.60;;
24145;SDS011;12308;50.948;4.706;2023-04-03T08:35:38;17.00;;;7.85;;
24145;SDS011;12308;50.948;4.706;2023-04-03T08:38:05;12.35;;;7.05;;
24145;SDS011;12308;50.948;4.706;2023-04-03T08:40:31;14.57;;;6.70;;
24145;SDS011;12308;50.948;4.706;2023-04-03T08:45:55;16.02;;;5.95;;
24145;SDS011;12308;50.948;4.706;2023-04-03T08:48:23;11.05;;;5.90;;
24145;SDS011;12308;50.948;4.706;2023-04-03T08:53:24;12.77;;;5.20;;
24145;SDS011;12308;50.948;4.706;2023-04-03T08:55:53;13.02;;;5.85;;
24145;SDS011;12308;50.948;4.706;2023-04-03T09:01:21;10.73;;;5.20;;
24145;SDS011;12308;50.948;4.706;2023-04-03T09:03:51;11.20;;;5.22;;
24145;SDS011;12308;50.948;4.706;2023-04-03T09:06:35;10.02;;;4.82;;
24145;SDS011;12308;50.948;4.706;2023-04-03T09:22:55;8.63;;;3.67;;
24145;SDS011;12308;50.948;4.706;2023-04-03T09:25:23;10.20;;;4.10;;
24145;SDS011;12308;50.948;4.706;2023-04-03T09:27:59;8.70;;;4.05;;
24145;SDS011;12308;50.948;4.706;2023-04-03T09:30:25;9.15;;;4.07;;
24145;SDS011;12308;50.948;4.706;2023-04-03T09:32:52;8.68;;;4.20;;
24145;SDS011;12308;50.948;4.706;2023-04-03T09:37:53;8.43;;;3.92;;
24145;SDS011;12308;50.948;4.706;2023-04-03T09:42:50;13.68;;;3.88;;
24145;SDS011;12308;50.948;4.706;2023-04-03T09:47:50;11.07;;;4.97;;
24145;SDS011;12308;50.948;4.706;2023-04-03T09:50:34;10.30;;;4.68;;
24145;SDS011;12308;50.948;4.706;2023-04-03T09:53:04;13.43;;;4.60;;
24145;SDS011;12308;50.948;4.706;2023-04-03T09:55:32;8.90;;;4.00;;
24145;SDS011;12308;50.948;4.706;2023-04-03T09:58:22;10.25;;;3.63;;
24145;SDS011;12308;50.948;4.706;2023-04-03T10:00:58;10.25;;;3.38;;
24145;SDS011;12308;50.948;4.706;2023-04-03T10:03:33;33.35;;;4.47;;
24145;SDS011;12308;50.948;4.706;2023-04-03T10:06:01;13.38;;;3.33;;
24145;SDS011;12308;50.948;4.706;2023-04-03T10:08:32;6.88;;;3.30;;
24145;SDS011;12308;50.948;4.706;2023-04-03T10:13:58;7.40;;;3.03;;
24145;SDS011;12308;50.948;4.706;2023-04-03T10:16:31;13.60;;;3.08;;
24145;SDS011;12308;50.948;4.706;2023-04-03T10:19:04;6.65;;;2.25;;
24145;SDS011;12308;50.948;4.706;2023-04-03T10:21:40;5.95;;;2.30;;
24145;SDS011;12308;50.948;4.706;2023-04-03T10:24:11;10.43;;;2.63;;
24145;SDS011;12308;50.948;4.706;2023-04-03T10:29:35;7.28;;;2.67;;
24145;SDS011;12308;50.948;4.706;2023-04-03T10:34:43;12.77;;;4.15;;
24145;SDS011;12308;50.948;4.706;2023-04-03T10:39:56;8.90;;;3.30;;
24145;SDS011;12308;50.948;4.706;2023-04-03T10:51:11;6.32;;;2.30;;
24145;SDS011;12308;50.948;4.706;2023-04-03T10:58:54;7.90;;;2.47;;
24145;SDS011;12308;50.948;4.706;2023-04-03T11:01:33;6.13;;;2.33;;
24145;SDS011;12308;50.948;4.706;2023-04-03T11:04:03;5.50;;;2.45;;
24145;SDS011;12308;50.948;4.706;2023-04-03T11:07:08;6.10;;;2.55;;
24145;SDS011;12308;50.948;4.706;2023-04-03T11:09:27;11.60;;;3.33;;
24145;SDS011;12308;50.948;4.706;2023-04-03T11:12:00;10.40;;;3.22;;
24145;SDS011;12308;50.948;4.706;2023-04-03T11:14:32;10.23;;;3.47;;
24145;SDS011;12308;50.948;4.706;2023-04-03T11:19:36;8.15;;;2.60;;
24145;SDS011;12308;50.948;4.706;2023-04-03T11:24:37;10.88;;;2.35;;
24145;SDS011;12308;50.948;4.706;2023-04-03T11:27:08;5.90;;;2.17;;
24145;SDS011;12308;50.948;4.706;2023-04-03T11:29:43;8.20;;;1.98;;
24145;SDS011;12308;50.948;4.706;2023-04-03T11:34:47;4.15;;;2.08;;
24145;SDS011;12308;50.948;4.706;2023-04-03T11:37:17;6.13;;;1.85;;
24145;SDS011;12308;50.948;4.706;2023-04-03T11:40:00;7.93;;;1.92;;
24145;SDS011;12308;50.948;4.706;2023-04-03T11:42:48;5.03;;;1.98;;
24145;SDS011;12308;50.948;4.706;2023-04-03T11:47:56;6.10;;;2.10;;
24145;SDS011;12308;50.948;4.706;2023-04-03T11:58:14;6.10;;;1.90;;
24145;SDS011;12308;50.948;4.706;2023-04-03T12:00:55;5.55;;;2.20;;
24145;SDS011;12308;50.948;4.706;2023-04-03T12:05:52;4.22;;;1.85;;
24145;SDS011;12308;50.948;4.706;2023-04-03T12:13:40;4.25;;;1.90;;
24145;SDS011;12308;50.948;4.706;2023-04-03T12:16:07;6.50;;;1.60;;
24145;SDS011;12308;50.948;4.706;2023-04-03T12:21:14;4.25;;;1.80;;
24145;SDS011;12308;50.948;4.706;2023-04-03T12:26:30;5.13;;;1.95;;
24145;SDS011;12308;50.948;4.706;2023-04-03T12:31:48;5.10;;;1.77;;
24145;SDS011;12308;50.948;4.706;2023-04-03T12:37:27;4.20;;;1.60;;
24145;SDS011;12308;50.948;4.706;2023-04-03T12:48:39;6.95;;;1.77;;
24145;SDS011;12308;50.948;4.706;2023-04-03T12:51:16;5.72;;;2.00;;
24145;SDS011;12308;50.948;4.706;2023-04-03T12:53:45;5.65;;;2.03;;
24145;SDS011;12308;50.948;4.706;2023-04-03T12:56:45;7.10;;;2.10;;
24145;SDS011;12308;50.948;4.706;2023-04-03T13:01:58;5.88;;;2.20;;
24145;SDS011;12308;50.948;4.706;2023-04-03T13:04:29;5.90;;;2.30;;
24145;SDS011;12308;50.948;4.706;2023-04-03T13:06:56;8.73;;;2.20;;
24145;SDS011;12308;50.948;4.706;2023-04-03T13:12:10;2.88;;;1.65;;
24145;SDS011;12308;50.948;4.706;2023-04-03T13:14:38;8.82;;;2.10;;
24145;SDS011;12308;50.948;4.706;2023-04-03T13:19:37;5.22;;;2.22;;
24145;SDS011;12308;50.948;4.706;2023-04-03T13:22:04;8.18;;;1.88;;
24145;SDS011;12308;50.948;4.706;2023-04-03T13:24:35;6.93;;;2.55;;
24145;SDS011;12308;50.948;4.706;2023-04-03T13:27:03;5.55;;;2.10;;
24145;SDS011;12308;50.948;4.706;2023-04-03T13:29:32;4.40;;;2.20;;
24145;SDS011;12308;50.948;4.706;2023-04-03T13:32:00;10.32;;;2.53;;
24145;SDS011;12308;50.948;4.706;2023-04-03T13:34:28;6.50;;;2.10;;
24145;SDS011;12308;50.948;4.706;2023-04-03T13:37:00;4.90;;;2.10;;
24145;SDS011;12308;50.948;4.706;2023-04-03T13:39:32;6.03;;;2.53;;
24145;SDS011;12308;50.948;4.706;2023-04-03T13:42:00;9.38;;;2.15;;
24145;SDS011;12308;50.948;4.706;2023-04-03T13:44:39;6.10;;;2.08;;
24145;SDS011;12308;50.948;4.706;2023-04-03T13:54:52;4.70;;;2.10;;
24145;SDS011;12308;50.948;4.706;2023-04-03T13:57:22;9.98;;;2.45;;
24145;SDS011;12308;50.948;4.706;2023-04-03T13:59:47;5.28;;;2.65;;
24145;SDS011;12308;50.948;4.706;2023-04-03T14:07:12;4.32;;;1.88;;
24145;SDS011;12308;50.948;4.706;2023-04-03T14:09:39;5.30;;;2.30;;
24145;SDS011;12308;50.948;4.706;2023-04-03T14:12:07;5.18;;;1.83;;
24145;SDS011;12308;50.948;4.706;2023-04-03T14:14:51;6.28;;;2.10;;
24145;SDS011;12308;50.948;4.706;2023-04-03T14:17:18;9.18;;;2.13;;
24145;SDS011;12308;50.948;4.706;2023-04-03T14:19:46;5.82;;;2.22;;
24145;SDS011;12308;50.948;4.706;2023-04-03T14:25:08;4.38;;;1.92;;
24145;SDS011;12308;50.948;4.706;2023-04-03T14:27:44;4.50;;;1.70;;
24145;SDS011;12308;50.948;4.706;2023-04-03T14:30:16;5.85;;;2.00;;
24145;SDS011;12308;50.948;4.706;2023-04-03T14:32:45;9.75;;;2.13;;
24145;SDS011;12308;50.948;4.706;2023-04-03T14:35:12;4.70;;;1.83;;
24145;SDS011;12308;50.948;4.706;2023-04-03T14:37:38;6.35;;;1.85;;
24145;SDS011;12308;50.948;4.706;2023-04-03T14:40:04;4.65;;;1.83;;
24145;SDS011;12308;50.948;4.706;2023-04-03T14:42:33;5.10;;;2.30;;
24145;SDS011;12308;50.948;4.706;2023-04-03T14:45:01;4.70;;;1.80;;
24145;SDS011;12308;50.948;4.706;2023-04-03T14:47:29;6.30;;;2.10;;
24145;SDS011;12308;50.948;4.706;2023-04-03T14:49:55;6.15;;;1.95;;
24145;SDS011;12308;50.948;4.706;2023-04-03T14:52:23;3.47;;;1.77;;
24145;SDS011;12308;50.948;4.706;2023-04-03T14:54:49;5.65;;;1.90;;
24145;SDS011;12308;50.948;4.706;2023-04-03T14:57:15;6.15;;;2.22;;
24145;SDS011;12308;50.948;4.706;2023-04-03T14:59:42;5.82;;;2.17;;
24145;SDS011;12308;50.948;4.706;2023-04-03T15:05:02;4.88;;;1.98;;
24145;SDS011;12308;50.948;4.706;2023-04-03T15:07:31;8.20;;;2.30;;
24145;SDS011;12308;50.948;4.706;2023-04-03T15:10:44;7.60;;;2.00;;
24145;SDS011;12308;50.948;4.706;2023-04-03T15:12:50;5.53;;;2.55;;
24145;SDS011;12308;50.948;4.706;2023-04-03T15:15:17;4.38;;;2.05;;
24145;SDS011;12308;50.948;4.706;2023-04-03T15:17:50;4.95;;;2.33;;
24145;SDS011;12308;50.948;4.706;2023-04-03T15:20:19;7.57;;;2.38;;
24145;SDS011;12308;50.948;4.706;2023-04-03T15:22:47;5.40;;;2.53;;
24145;SDS011;12308;50.948;4.706;2023-04-03T15:25:13;5.22;;;1.92;;
24145;SDS011;12308;50.948;4.706;2023-04-03T15:27:39;6.28;;;2.25;;
24145;SDS011;12308;50.948;4.706;2023-04-03T15:30:06;6.80;;;2.40;;
24145;SDS011;12308;50.948;4.706;2023-04-03T15:32:33;6.32;;;2.38;;
24145;SDS011;12308;50.948;4.706;2023-04-03T15:35:00;6.13;;;2.40;;
24145;SDS011;12308;50.948;4.706;2023-04-03T15:37:26;7.18;;;2.55;;
24145;SDS011;12308;50.948;4.706;2023-04-03T15:39:52;7.95;;;2.28;;
24145;SDS011;12308;50.948;4.706;2023-04-03T15:42:18;6.68;;;2.55;;
24145;SDS011;12308;50.948;4.706;2023-04-03T15:44:43;5.85;;;2.63;;
24145;SDS011;12308;50.948;4.706;2023-04-03T15:47:09;7.18;;;2.97;;
24145;SDS011;12308;50.948;4.706;2023-04-03T15:49:35;9.00;;;2.78;;
24145;SDS011;12308;50.948;4.706;2023-04-03T15:52:01;6.40;;;2.55;;
24145;SDS011;12308;50.948;4.706;2023-04-03T15:54:27;7.25;;;2.55;;
24145;SDS011;12308;50.948;4.706;2023-04-03T15:56:54;6.13;;;2.90;;
24145;SDS011;12308;50.948;4.706;2023-04-03T15:59:20;7.60;;;2.88;;
24145;SDS011;12308;50.948;4.706;2023-04-03T16:01:47;6.25;;;2.53;;
24145;SDS011;12308;50.948;4.706;2023-04-03T16:04:13;5.72;;;2.45;;
24145;SDS011;12308;50.948;4.706;2023-04-03T16:06:40;5.07;;;2.30;;
24145;SDS011;12308;50.948;4.706;2023-04-03T16:09:06;4.93;;;2.60;;
24145;SDS011;12308;50.948;4.706;2023-04-03T16:11:33;9.73;;;3.30;;
24145;SDS011;12308;50.948;4.706;2023-04-03T16:14:01;5.75;;;2.83;;
24145;SDS011;12308;50.948;4.706;2023-04-03T16:16:27;11.63;;;2.60;;
24145;SDS011;12308;50.948;4.706;2023-04-03T16:18:53;8.63;;;2.95;;
24145;SDS011;12308;50.948;4.706;2023-04-03T16:21:20;6.72;;;2.85;;
24145;SDS011;12308;50.948;4.706;2023-04-03T16:23:47;7.18;;;2.67;;
24145;SDS011;12308;50.948;4.706;2023-04-03T16:26:13;8.30;;;2.45;;
24145;SDS011;12308;50.948;4.706;2023-04-03T16:28:39;5.85;;;2.83;;
24145;SDS011;12308;50.948;4.706;2023-04-03T16:31:05;6.65;;;2.63;;
24145;SDS011;12308;50.948;4.706;2023-04-03T16:33:32;8.05;;;2.28;;
24145;SDS011;12308;50.948;4.706;2023-04-03T16:35:58;8.32;;;2.70;;
24145;SDS011;12308;50.948;4.706;2023-04-03T16:38:24;5.15;;;2.28;;
24145;SDS011;12308;50.948;4.706;2023-04-03T16:40:50;4.50;;;2.15;;
24145;SDS011;12308;50.948;4.706;2023-04-03T16:43:17;7.05;;;2.53;;
24145;SDS011;12308;50.948;4.706;2023-04-03T16:45:43;8.85;;;2.17;;
24145;SDS011;12308;50.948;4.706;2023-04-03T16:48:08;6.13;;;2.50;;
24145;SDS011;12308;50.948;4.706;2023-04-03T16:50:34;8.70;;;2.80;;